Chicago, IL

06:08 CST dnia 19-grudzień-2014 (GMT -0600)
West Loop - Old St. Pats | Change Station
CLOSE
Current Station
Stacja PWS
Location: Chicago, IL
n.p.m.: 548 ft
Najbliższa stacja pogodowa

Wysokość 548 ft 41.88 °N, 87.64 °W | Updated 38 seconds ago

pochmurno
pochmurno
30.9 ° F
Odczuwalna 31 ° F
Płn.
1.0
Wiatr zmienny Wiatr od wschodni
Gusts 3.0 mph

Dziś
Wysoka -- | Niska -- ° F
--% Prawdop. opadów
Wczoraj
Wysoka -- | Niska -- ° F
Precip. -- cali
7:13 AM 4:21 PM
Zmniejszający się sierp Księżyca, 8% visible
Ciśnienie 30.31 cali
Widzialność 10.0 mil
chmury Niewiele 1300 ft
pochmurno 2600 ft
czynnik chłodzący wiatru 31 ° F
Punkt rosy 26 ° F
Wilgotność 80%
Opady deszczu 0.00 cali
grubość pokrywy śnieżnej Niedostępne.
UV 0 z 12
Pyłki .10 z 12
Jakość powietrza Niedostępne.
Flu Activity Niedostępne.
METAR KMDW 191153Z 33004KT 10SM FEW013 OVC026 M01/M04 A3027 RMK AO2 SNE27 SLP264 P0000 60000 T10111044 11011 21017 55000 $

More Conditions Fewer Conditions

Ciśnienie 30.31 cali
Widzialność 10.0 mil
chmury Niewiele 1300 ft
pochmurno 2600 ft
czynnik chłodzący wiatru 31 ° F
Punkt rosy 26 ° F
Wilgotność 80%
Opady deszczu 0.00 cali
grubość pokrywy śnieżnej Niedostępne.
UV 0 z 12
Pyłki .10 z 12
Jakość powietrza Niedostępne.
Flu Activity Niedostępne.
METAR KMDW 191153Z 33004KT 10SM FEW013 OVC026 M01/M04 A3027 RMK AO2 SNE27 SLP264 P0000 60000 T10111044 11011 21017 55000 $

More Conditions Fewer Conditions

10-Day Weather Forecast

Almanac

Astronomia

Dec. 19, 2014 Wschód Zachów
Aktualny czas
Zmierzch cywilny
Zmierzch żeglarski
świt/zmierzch astronomiczny
Księżyc
całkowite oświetlenie
Długość dnia
Tomorrow will be .
, % of the Moon is Illuminated

Dzisiejsze ekstrema

State Highs State Lows

Community

WunderPhotos

Upload Photos

1,778,968 zdjęcia zostały przesłane!

WunderBlogs® & News

Nearby

Jakość powietrza

  Jakość powietrza czynnik AQ Zanieczyszczenie
Not available.

Głębokość pokrywy śnieżnej

Station Depth n.p.m.

Aktywność sejsmiczna

Miejscowość Distance Mag. Time & Date
Minimum magnitude displayed is 2.5.

Temperatury wody na wybrzeżu

Miejsce Temperatura

Najbliższa stacja pogodowa